sensor_id;sensor_type;location;lat;lon;timestamp;P1;durP1;ratioP1;P2;durP2;ratioP2
73760;SDS011;69240;43.530;-5.646;2023-07-29T00:01:30;2.35;;;1.67;;
73760;SDS011;69240;43.530;-5.646;2023-07-29T00:03:56;2.63;;;1.58;;
73760;SDS011;69240;43.530;-5.646;2023-07-29T00:06:22;2.97;;;1.60;;
73760;SDS011;69240;43.530;-5.646;2023-07-29T00:08:47;2.42;;;1.63;;
73760;SDS011;69240;43.530;-5.646;2023-07-29T00:11:13;6.15;;;1.70;;
73760;SDS011;69240;43.530;-5.646;2023-07-29T00:13:38;3.67;;;1.70;;
73760;SDS011;69240;43.530;-5.646;2023-07-29T00:16:04;3.65;;;2.00;;
73760;SDS011;69240;43.530;-5.646;2023-07-29T00:18:29;2.95;;;1.90;;
73760;SDS011;69240;43.530;-5.646;2023-07-29T00:20:56;3.33;;;1.90;;
73760;SDS011;69240;43.530;-5.646;2023-07-29T00:23:22;3.30;;;1.67;;
73760;SDS011;69240;43.530;-5.646;2023-07-29T00:25:48;2.83;;;1.70;;
73760;SDS011;69240;43.530;-5.646;2023-07-29T00:28:13;2.05;;;1.40;;
73760;SDS011;69240;43.530;-5.646;2023-07-29T00:30:39;3.55;;;1.73;;
73760;SDS011;69240;43.530;-5.646;2023-07-29T00:33:04;3.00;;;1.48;;
73760;SDS011;69240;43.530;-5.646;2023-07-29T00:35:30;2.40;;;1.55;;
73760;SDS011;69240;43.530;-5.646;2023-07-29T00:37:55;3.05;;;1.40;;
73760;SDS011;69240;43.530;-5.646;2023-07-29T00:40:21;3.67;;;1.40;;
73760;SDS011;69240;43.530;-5.646;2023-07-29T00:42:47;3.80;;;1.40;;
73760;SDS011;69240;43.530;-5.646;2023-07-29T00:45:14;5.00;;;1.60;;
73760;SDS011;69240;43.530;-5.646;2023-07-29T00:47:39;5.60;;;1.63;;
73760;SDS011;69240;43.530;-5.646;2023-07-29T00:50:07;2.30;;;1.30;;
73760;SDS011;69240;43.530;-5.646;2023-07-29T00:52:37;1.50;;;1.33;;
73760;SDS011;69240;43.530;-5.646;2023-07-29T00:55:03;3.83;;;1.67;;
73760;SDS011;69240;43.530;-5.646;2023-07-29T00:57:30;2.88;;;1.52;;
73760;SDS011;69240;43.530;-5.646;2023-07-29T00:59:56;1.33;;;1.20;;
73760;SDS011;69240;43.530;-5.646;2023-07-29T01:02:22;2.55;;;1.58;;
73760;SDS011;69240;43.530;-5.646;2023-07-29T01:04:51;3.92;;;1.45;;
73760;SDS011;69240;43.530;-5.646;2023-07-29T01:07:39;1.83;;;1.50;;
73760;SDS011;69240;43.530;-5.646;2023-07-29T01:13:10;2.92;;;1.42;;
73760;SDS011;69240;43.530;-5.646;2023-07-29T01:18:24;2.13;;;1.25;;
73760;SDS011;69240;43.530;-5.646;2023-07-29T01:20:54;2.95;;;1.33;;
73760;SDS011;69240;43.530;-5.646;2023-07-29T01:23:25;1.83;;;1.40;;
73760;SDS011;69240;43.530;-5.646;2023-07-29T01:25:54;3.07;;;1.53;;
73760;SDS011;69240;43.530;-5.646;2023-07-29T01:28:19;5.43;;;1.50;;
73760;SDS011;69240;43.530;-5.646;2023-07-29T01:30:45;1.95;;;1.30;;
73760;SDS011;69240;43.530;-5.646;2023-07-29T01:33:20;2.60;;;1.30;;
73760;SDS011;69240;43.530;-5.646;2023-07-29T01:35:51;1.60;;;1.38;;
73760;SDS011;69240;43.530;-5.646;2023-07-29T01:38:33;2.10;;;1.30;;
73760;SDS011;69240;43.530;-5.646;2023-07-29T01:41:02;3.03;;;1.50;;
73760;SDS011;69240;43.530;-5.646;2023-07-29T01:43:28;2.33;;;1.40;;
73760;SDS011;69240;43.530;-5.646;2023-07-29T01:45:54;4.22;;;1.63;;
73760;SDS011;69240;43.530;-5.646;2023-07-29T01:48:20;3.15;;;1.90;;
73760;SDS011;69240;43.530;-5.646;2023-07-29T01:50:46;3.28;;;1.77;;
73760;SDS011;69240;43.530;-5.646;2023-07-29T01:53:12;1.90;;;1.25;;
73760;SDS011;69240;43.530;-5.646;2023-07-29T01:55:38;3.08;;;1.50;;
73760;SDS011;69240;43.530;-5.646;2023-07-29T01:58:04;2.47;;;1.40;;
73760;SDS011;69240;43.530;-5.646;2023-07-29T02:00:29;2.05;;;1.27;;
73760;SDS011;69240;43.530;-5.646;2023-07-29T02:02:55;2.55;;;1.45;;
73760;SDS011;69240;43.530;-5.646;2023-07-29T02:05:20;1.90;;;1.38;;
73760;SDS011;69240;43.530;-5.646;2023-07-29T02:07:46;1.95;;;1.48;;
73760;SDS011;69240;43.530;-5.646;2023-07-29T02:10:11;1.83;;;1.40;;
73760;SDS011;69240;43.530;-5.646;2023-07-29T02:12:37;2.42;;;1.70;;
73760;SDS011;69240;43.530;-5.646;2023-07-29T02:15:03;3.90;;;1.75;;
73760;SDS011;69240;43.530;-5.646;2023-07-29T02:17:30;2.92;;;1.60;;
73760;SDS011;69240;43.530;-5.646;2023-07-29T02:19:56;3.05;;;1.67;;
73760;SDS011;69240;43.530;-5.646;2023-07-29T02:22:21;4.18;;;1.48;;
73760;SDS011;69240;43.530;-5.646;2023-07-29T02:24:47;7.07;;;1.70;;
73760;SDS011;69240;43.530;-5.646;2023-07-29T02:27:12;3.60;;;1.50;;
73760;SDS011;69240;43.530;-5.646;2023-07-29T02:29:38;2.65;;;1.70;;
73760;SDS011;69240;43.530;-5.646;2023-07-29T02:32:03;4.57;;;1.60;;
73760;SDS011;69240;43.530;-5.646;2023-07-29T02:34:29;2.60;;;1.42;;
73760;SDS011;69240;43.530;-5.646;2023-07-29T02:36:55;2.20;;;1.30;;
73760;SDS011;69240;43.530;-5.646;2023-07-29T02:39:21;3.13;;;1.85;;
73760;SDS011;69240;43.530;-5.646;2023-07-29T02:41:46;3.70;;;1.63;;
73760;SDS011;69240;43.530;-5.646;2023-07-29T02:44:12;1.30;;;1.05;;
73760;SDS011;69240;43.530;-5.646;2023-07-29T02:46:37;2.28;;;1.48;;
73760;SDS011;69240;43.530;-5.646;2023-07-29T02:49:03;2.00;;;1.40;;
73760;SDS011;69240;43.530;-5.646;2023-07-29T02:51:32;1.65;;;1.20;;
73760;SDS011;69240;43.530;-5.646;2023-07-29T02:53:58;3.95;;;1.40;;
73760;SDS011;69240;43.530;-5.646;2023-07-29T02:56:23;2.85;;;1.60;;
73760;SDS011;69240;43.530;-5.646;2023-07-29T02:58:49;2.22;;;1.50;;
73760;SDS011;69240;43.530;-5.646;2023-07-29T03:01:16;4.32;;;1.63;;
73760;SDS011;69240;43.530;-5.646;2023-07-29T03:03:42;2.42;;;1.10;;
73760;SDS011;69240;43.530;-5.646;2023-07-29T03:06:08;1.75;;;1.35;;
73760;SDS011;69240;43.530;-5.646;2023-07-29T03:08:35;2.70;;;1.48;;
73760;SDS011;69240;43.530;-5.646;2023-07-29T03:11:08;1.65;;;1.25;;
73760;SDS011;69240;43.530;-5.646;2023-07-29T03:13:35;2.35;;;1.60;;
73760;SDS011;69240;43.530;-5.646;2023-07-29T03:16:34;2.72;;;1.50;;
73760;SDS011;69240;43.530;-5.646;2023-07-29T03:18:53;2.72;;;1.30;;
73760;SDS011;69240;43.530;-5.646;2023-07-29T03:21:18;2.88;;;1.65;;
73760;SDS011;69240;43.530;-5.646;2023-07-29T03:23:44;1.58;;;1.48;;
73760;SDS011;69240;43.530;-5.646;2023-07-29T03:26:09;4.72;;;1.67;;
73760;SDS011;69240;43.530;-5.646;2023-07-29T03:28:36;3.55;;;1.70;;
73760;SDS011;69240;43.530;-5.646;2023-07-29T03:31:06;3.72;;;1.50;;
73760;SDS011;69240;43.530;-5.646;2023-07-29T03:33:32;1.88;;;1.30;;
73760;SDS011;69240;43.530;-5.646;2023-07-29T03:35:58;1.50;;;1.30;;
73760;SDS011;69240;43.530;-5.646;2023-07-29T03:38:24;1.50;;;1.30;;
73760;SDS011;69240;43.530;-5.646;2023-07-29T03:40:50;2.45;;;1.55;;
73760;SDS011;69240;43.530;-5.646;2023-07-29T03:43:15;4.10;;;2.00;;
73760;SDS011;69240;43.530;-5.646;2023-07-29T03:45:41;2.25;;;1.50;;
73760;SDS011;69240;43.530;-5.646;2023-07-29T03:48:06;3.08;;;2.15;;
73760;SDS011;69240;43.530;-5.646;2023-07-29T03:50:33;1.75;;;1.40;;
73760;SDS011;69240;43.530;-5.646;2023-07-29T03:53:03;3.70;;;1.52;;
73760;SDS011;69240;43.530;-5.646;2023-07-29T03:55:29;2.15;;;1.50;;
73760;SDS011;69240;43.530;-5.646;2023-07-29T03:57:58;1.73;;;1.30;;
73760;SDS011;69240;43.530;-5.646;2023-07-29T04:00:24;2.95;;;2.15;;
73760;SDS011;69240;43.530;-5.646;2023-07-29T04:02:50;3.65;;;1.70;;
73760;SDS011;69240;43.530;-5.646;2023-07-29T04:05:16;3.45;;;1.90;;
73760;SDS011;69240;43.530;-5.646;2023-07-29T04:07:42;11.07;;;3.60;;
73760;SDS011;69240;43.530;-5.646;2023-07-29T04:10:08;3.88;;;1.77;;
73760;SDS011;69240;43.530;-5.646;2023-07-29T04:12:34;4.70;;;2.40;;
73760;SDS011;69240;43.530;-5.646;2023-07-29T04:15:00;4.43;;;1.83;;
73760;SDS011;69240;43.530;-5.646;2023-07-29T04:17:25;5.78;;;2.78;;
73760;SDS011;69240;43.530;-5.646;2023-07-29T04:19:51;4.05;;;2.25;;
73760;SDS011;69240;43.530;-5.646;2023-07-29T04:22:16;3.65;;;2.10;;
73760;SDS011;69240;43.530;-5.646;2023-07-29T04:24:42;8.43;;;2.78;;
73760;SDS011;69240;43.530;-5.646;2023-07-29T04:27:07;8.00;;;3.72;;
73760;SDS011;69240;43.530;-5.646;2023-07-29T04:29:36;11.10;;;4.50;;
73760;SDS011;69240;43.530;-5.646;2023-07-29T04:32:02;11.75;;;4.70;;
73760;SDS011;69240;43.530;-5.646;2023-07-29T04:34:28;8.10;;;3.55;;
73760;SDS011;69240;43.530;-5.646;2023-07-29T04:36:53;6.20;;;2.65;;
73760;SDS011;69240;43.530;-5.646;2023-07-29T04:39:19;8.48;;;3.03;;
73760;SDS011;69240;43.530;-5.646;2023-07-29T04:41:45;4.93;;;2.30;;
73760;SDS011;69240;43.530;-5.646;2023-07-29T04:44:10;6.00;;;2.15;;
73760;SDS011;69240;43.530;-5.646;2023-07-29T04:46:36;6.28;;;2.42;;
73760;SDS011;69240;43.530;-5.646;2023-07-29T04:49:02;9.55;;;2.50;;
73760;SDS011;69240;43.530;-5.646;2023-07-29T04:51:27;4.38;;;2.35;;
73760;SDS011;69240;43.530;-5.646;2023-07-29T04:53:53;4.70;;;2.60;;
73760;SDS011;69240;43.530;-5.646;2023-07-29T04:56:19;4.05;;;2.10;;
73760;SDS011;69240;43.530;-5.646;2023-07-29T04:58:45;5.03;;;2.45;;
73760;SDS011;69240;43.530;-5.646;2023-07-29T05:01:10;4.88;;;2.67;;
73760;SDS011;69240;43.530;-5.646;2023-07-29T05:03:36;7.75;;;2.47;;
73760;SDS011;69240;43.530;-5.646;2023-07-29T05:06:03;6.20;;;2.17;;
73760;SDS011;69240;43.530;-5.646;2023-07-29T05:08:28;4.70;;;3.05;;
73760;SDS011;69240;43.530;-5.646;2023-07-29T05:10:54;6.43;;;2.50;;
73760;SDS011;69240;43.530;-5.646;2023-07-29T05:13:21;3.17;;;1.90;;
73760;SDS011;69240;43.530;-5.646;2023-07-29T05:15:47;8.05;;;2.40;;
73760;SDS011;69240;43.530;-5.646;2023-07-29T05:18:14;4.18;;;2.42;;
73760;SDS011;69240;43.530;-5.646;2023-07-29T05:20:40;6.00;;;2.53;;
73760;SDS011;69240;43.530;-5.646;2023-07-29T05:23:06;3.42;;;2.03;;
73760;SDS011;69240;43.530;-5.646;2023-07-29T05:25:32;9.52;;;2.85;;
73760;SDS011;69240;43.530;-5.646;2023-07-29T05:28:00;4.30;;;2.17;;
73760;SDS011;69240;43.530;-5.646;2023-07-29T05:30:28;2.67;;;1.90;;
73760;SDS011;69240;43.530;-5.646;2023-07-29T05:32:56;6.07;;;1.70;;
73760;SDS011;69240;43.530;-5.646;2023-07-29T05:35:22;3.15;;;1.88;;
73760;SDS011;69240;43.530;-5.646;2023-07-29T05:37:48;3.30;;;2.15;;
73760;SDS011;69240;43.530;-5.646;2023-07-29T05:40:14;2.67;;;1.70;;
73760;SDS011;69240;43.530;-5.646;2023-07-29T05:42:39;4.55;;;1.75;;
73760;SDS011;69240;43.530;-5.646;2023-07-29T05:45:05;4.95;;;2.10;;
73760;SDS011;69240;43.530;-5.646;2023-07-29T05:47:31;2.63;;;1.75;;
73760;SDS011;69240;43.530;-5.646;2023-07-29T05:49:56;4.65;;;1.65;;
73760;SDS011;69240;43.530;-5.646;2023-07-29T05:52:22;3.67;;;1.77;;
73760;SDS011;69240;43.530;-5.646;2023-07-29T05:54:48;3.65;;;1.70;;
73760;SDS011;69240;43.530;-5.646;2023-07-29T05:57:13;2.78;;;2.00;;
73760;SDS011;69240;43.530;-5.646;2023-07-29T05:59:39;4.65;;;2.03;;
73760;SDS011;69240;43.530;-5.646;2023-07-29T06:02:04;3.90;;;2.17;;
73760;SDS011;69240;43.530;-5.646;2023-07-29T06:04:31;6.28;;;2.67;;
73760;SDS011;69240;43.530;-5.646;2023-07-29T06:06:56;6.70;;;3.38;;
73760;SDS011;69240;43.530;-5.646;2023-07-29T06:09:24;6.80;;;3.15;;
73760;SDS011;69240;43.530;-5.646;2023-07-29T06:11:50;6.03;;;3.63;;
73760;SDS011;69240;43.530;-5.646;2023-07-29T06:14:16;6.80;;;3.72;;
73760;SDS011;69240;43.530;-5.646;2023-07-29T06:16:42;8.13;;;3.63;;
73760;SDS011;69240;43.530;-5.646;2023-07-29T06:19:07;8.35;;;4.20;;
73760;SDS011;69240;43.530;-5.646;2023-07-29T06:21:34;8.00;;;3.85;;
73760;SDS011;69240;43.530;-5.646;2023-07-29T06:24:00;8.32;;;4.25;;
73760;SDS011;69240;43.530;-5.646;2023-07-29T06:26:25;6.45;;;3.85;;
73760;SDS011;69240;43.530;-5.646;2023-07-29T06:28:51;10.77;;;3.90;;
73760;SDS011;69240;43.530;-5.646;2023-07-29T06:31:16;6.13;;;3.38;;
73760;SDS011;69240;43.530;-5.646;2023-07-29T06:33:42;6.63;;;2.90;;
73760;SDS011;69240;43.530;-5.646;2023-07-29T06:36:08;6.75;;;2.80;;
73760;SDS011;69240;43.530;-5.646;2023-07-29T06:38:33;5.05;;;2.50;;
73760;SDS011;69240;43.530;-5.646;2023-07-29T06:40:59;4.10;;;2.40;;
73760;SDS011;69240;43.530;-5.646;2023-07-29T06:43:24;6.60;;;3.03;;
73760;SDS011;69240;43.530;-5.646;2023-07-29T06:45:50;5.43;;;2.20;;
73760;SDS011;69240;43.530;-5.646;2023-07-29T06:48:15;4.40;;;2.20;;
73760;SDS011;69240;43.530;-5.646;2023-07-29T06:50:41;3.13;;;1.85;;
73760;SDS011;69240;43.530;-5.646;2023-07-29T06:53:07;2.42;;;1.60;;
73760;SDS011;69240;43.530;-5.646;2023-07-29T06:55:32;2.35;;;1.70;;
73760;SDS011;69240;43.530;-5.646;2023-07-29T06:57:58;3.47;;;1.95;;
73760;SDS011;69240;43.530;-5.646;2023-07-29T07:00:23;3.20;;;1.75;;
73760;SDS011;69240;43.530;-5.646;2023-07-29T07:02:49;1.60;;;1.40;;
73760;SDS011;69240;43.530;-5.646;2023-07-29T07:05:14;3.03;;;1.30;;
73760;SDS011;69240;43.530;-5.646;2023-07-29T07:07:40;2.17;;;1.80;;
73760;SDS011;69240;43.530;-5.646;2023-07-29T07:21:06;2.50;;;1.50;;
73760;SDS011;69240;43.530;-5.646;2023-07-29T07:40:12;1.95;;;1.45;;
73760;SDS011;69240;43.530;-5.646;2023-07-29T07:42:38;1.90;;;1.30;;
73760;SDS011;69240;43.530;-5.646;2023-07-29T07:45:04;2.17;;;1.40;;
73760;SDS011;69240;43.530;-5.646;2023-07-29T07:47:30;2.85;;;2.00;;
73760;SDS011;69240;43.530;-5.646;2023-07-29T07:49:56;2.75;;;1.98;;
73760;SDS011;69240;43.530;-5.646;2023-07-29T07:52:21;6.07;;;2.63;;
73760;SDS011;69240;43.530;-5.646;2023-07-29T07:57:36;12.82;;;3.67;;
73760;SDS011;69240;43.530;-5.646;2023-07-29T08:00:02;53.60;;;9.95;;
73760;SDS011;69240;43.530;-5.646;2023-07-29T08:02:29;5.35;;;2.00;;
73760;SDS011;69240;43.530;-5.646;2023-07-29T08:04:54;16.67;;;4.05;;
73760;SDS011;69240;43.530;-5.646;2023-07-29T08:07:20;28.60;;;4.85;;
73760;SDS011;69240;43.530;-5.646;2023-07-29T08:09:45;4.70;;;2.13;;
73760;SDS011;69240;43.530;-5.646;2023-07-29T08:12:11;7.88;;;2.05;;
73760;SDS011;69240;43.530;-5.646;2023-07-29T08:14:36;8.73;;;2.92;;
73760;SDS011;69240;43.530;-5.646;2023-07-29T08:17:02;6.00;;;1.95;;
73760;SDS011;69240;43.530;-5.646;2023-07-29T08:19:28;5.70;;;2.03;;
73760;SDS011;69240;43.530;-5.646;2023-07-29T08:21:53;5.45;;;1.50;;
73760;SDS011;69240;43.530;-5.646;2023-07-29T08:24:19;5.93;;;1.65;;
73760;SDS011;69240;43.530;-5.646;2023-07-29T08:26:44;3.58;;;1.30;;
73760;SDS011;69240;43.530;-5.646;2023-07-29T08:29:10;8.95;;;1.95;;
73760;SDS011;69240;43.530;-5.646;2023-07-29T08:31:37;4.82;;;1.80;;
73760;SDS011;69240;43.530;-5.646;2023-07-29T08:34:02;7.90;;;2.00;;
73760;SDS011;69240;43.530;-5.646;2023-07-29T08:36:28;7.55;;;1.60;;
73760;SDS011;69240;43.530;-5.646;2023-07-29T08:38:53;7.05;;;1.55;;
73760;SDS011;69240;43.530;-5.646;2023-07-29T08:41:19;7.85;;;1.48;;
73760;SDS011;69240;43.530;-5.646;2023-07-29T08:44:26;5.45;;;1.70;;
73760;SDS011;69240;43.530;-5.646;2023-07-29T08:46:42;3.83;;;1.58;;
73760;SDS011;69240;43.530;-5.646;2023-07-29T08:49:08;4.18;;;1.20;;
73760;SDS011;69240;43.530;-5.646;2023-07-29T08:51:38;3.22;;;1.45;;
73760;SDS011;69240;43.530;-5.646;2023-07-29T08:54:06;2.35;;;1.38;;
73760;SDS011;69240;43.530;-5.646;2023-07-29T08:56:32;7.55;;;1.73;;
73760;SDS011;69240;43.530;-5.646;2023-07-29T08:58:59;3.47;;;1.55;;
73760;SDS011;69240;43.530;-5.646;2023-07-29T09:01:27;5.00;;;1.98;;
73760;SDS011;69240;43.530;-5.646;2023-07-29T09:03:53;4.43;;;1.70;;
73760;SDS011;69240;43.530;-5.646;2023-07-29T09:06:18;8.95;;;1.70;;
73760;SDS011;69240;43.530;-5.646;2023-07-29T09:08:46;4.97;;;1.50;;
73760;SDS011;69240;43.530;-5.646;2023-07-29T09:11:15;7.57;;;1.77;;
73760;SDS011;69240;43.530;-5.646;2023-07-29T09:13:42;4.72;;;1.80;;
73760;SDS011;69240;43.530;-5.646;2023-07-29T09:16:08;4.57;;;1.90;;
73760;SDS011;69240;43.530;-5.646;2023-07-29T09:18:34;4.25;;;1.55;;
73760;SDS011;69240;43.530;-5.646;2023-07-29T09:21:00;6.00;;;1.90;;
73760;SDS011;69240;43.530;-5.646;2023-07-29T09:23:42;7.65;;;2.63;;
73760;SDS011;69240;43.530;-5.646;2023-07-29T09:26:09;3.75;;;1.75;;
73760;SDS011;69240;43.530;-5.646;2023-07-29T09:28:37;6.25;;;1.80;;
73760;SDS011;69240;43.530;-5.646;2023-07-29T09:31:04;15.13;;;2.00;;
73760;SDS011;69240;43.530;-5.646;2023-07-29T09:33:32;7.93;;;2.35;;
73760;SDS011;69240;43.530;-5.646;2023-07-29T09:36:01;7.70;;;1.88;;
73760;SDS011;69240;43.530;-5.646;2023-07-29T09:38:28;4.00;;;1.58;;
73760;SDS011;69240;43.530;-5.646;2023-07-29T09:40:57;5.65;;;1.70;;
73760;SDS011;69240;43.530;-5.646;2023-07-29T09:43:30;6.68;;;1.85;;
73760;SDS011;69240;43.530;-5.646;2023-07-29T09:46:00;5.55;;;1.67;;
73760;SDS011;69240;43.530;-5.646;2023-07-29T09:48:26;4.03;;;1.60;;
73760;SDS011;69240;43.530;-5.646;2023-07-29T09:50:53;3.97;;;1.50;;
73760;SDS011;69240;43.530;-5.646;2023-07-29T09:53:20;4.53;;;1.67;;
73760;SDS011;69240;43.530;-5.646;2023-07-29T09:55:46;7.05;;;1.50;;
73760;SDS011;69240;43.530;-5.646;2023-07-29T09:58:19;3.97;;;1.35;;
73760;SDS011;69240;43.530;-5.646;2023-07-29T10:00:51;9.32;;;1.52;;
73760;SDS011;69240;43.530;-5.646;2023-07-29T10:03:17;10.48;;;1.60;;
73760;SDS011;69240;43.530;-5.646;2023-07-29T10:05:45;9.77;;;1.63;;
73760;SDS011;69240;43.530;-5.646;2023-07-29T10:08:11;3.88;;;1.00;;
73760;SDS011;69240;43.530;-5.646;2023-07-29T10:10:39;7.72;;;1.83;;
73760;SDS011;69240;43.530;-5.646;2023-07-29T10:13:06;4.75;;;1.30;;
73760;SDS011;69240;43.530;-5.646;2023-07-29T10:15:32;6.53;;;1.25;;
73760;SDS011;69240;43.530;-5.646;2023-07-29T10:17:59;5.05;;;1.38;;
73760;SDS011;69240;43.530;-5.646;2023-07-29T10:20:25;3.08;;;1.30;;
73760;SDS011;69240;43.530;-5.646;2023-07-29T10:22:51;5.95;;;2.03;;
73760;SDS011;69240;43.530;-5.646;2023-07-29T10:25:24;5.68;;;1.73;;
73760;SDS011;69240;43.530;-5.646;2023-07-29T10:28:11;5.97;;;1.70;;
73760;SDS011;69240;43.530;-5.646;2023-07-29T10:30:36;5.90;;;1.50;;
73760;SDS011;69240;43.530;-5.646;2023-07-29T10:33:04;7.38;;;1.50;;
73760;SDS011;69240;43.530;-5.646;2023-07-29T10:35:34;3.97;;;1.42;;
73760;SDS011;69240;43.530;-5.646;2023-07-29T10:38:01;3.95;;;1.52;;
73760;SDS011;69240;43.530;-5.646;2023-07-29T10:40:43;5.22;;;2.20;;
73760;SDS011;69240;43.530;-5.646;2023-07-29T10:43:12;3.85;;;1.85;;
73760;SDS011;69240;43.530;-5.646;2023-07-29T10:45:43;3.42;;;1.75;;
73760;SDS011;69240;43.530;-5.646;2023-07-29T10:48:12;6.55;;;1.73;;
73760;SDS011;69240;43.530;-5.646;2023-07-29T10:50:39;3.13;;;1.60;;
73760;SDS011;69240;43.530;-5.646;2023-07-29T10:53:05;3.20;;;1.70;;
73760;SDS011;69240;43.530;-5.646;2023-07-29T10:58:13;2.70;;;1.60;;
73760;SDS011;69240;43.530;-5.646;2023-07-29T11:00:42;4.50;;;1.70;;
73760;SDS011;69240;43.530;-5.646;2023-07-29T11:03:11;5.28;;;1.75;;
73760;SDS011;69240;43.530;-5.646;2023-07-29T11:05:44;2.22;;;1.40;;
73760;SDS011;69240;43.530;-5.646;2023-07-29T11:11:11;2.83;;;1.20;;
73760;SDS011;69240;43.530;-5.646;2023-07-29T11:13:37;2.90;;;1.25;;
73760;SDS011;69240;43.530;-5.646;2023-07-29T11:16:04;3.38;;;1.38;;
73760;SDS011;69240;43.530;-5.646;2023-07-29T11:18:31;1.55;;;1.13;;
73760;SDS011;69240;43.530;-5.646;2023-07-29T11:20:58;1.95;;;1.00;;
73760;SDS011;69240;43.530;-5.646;2023-07-29T11:23:34;1.75;;;0.98;;
73760;SDS011;69240;43.530;-5.646;2023-07-29T11:26:01;1.55;;;1.00;;
73760;SDS011;69240;43.530;-5.646;2023-07-29T11:28:28;5.05;;;1.30;;
73760;SDS011;69240;43.530;-5.646;2023-07-29T11:30:57;5.70;;;1.40;;
73760;SDS011;69240;43.530;-5.646;2023-07-29T11:33:26;3.67;;;1.08;;
73760;SDS011;69240;43.530;-5.646;2023-07-29T11:35:53;8.77;;;1.45;;
73760;SDS011;69240;43.530;-5.646;2023-07-29T11:38:20;5.00;;;1.20;;
73760;SDS011;69240;43.530;-5.646;2023-07-29T11:40:59;7.28;;;1.42;;
73760;SDS011;69240;43.530;-5.646;2023-07-29T11:43:26;5.55;;;1.35;;
73760;SDS011;69240;43.530;-5.646;2023-07-29T11:45:52;6.47;;;1.67;;
73760;SDS011;69240;43.530;-5.646;2023-07-29T11:48:18;5.07;;;1.63;;
73760;SDS011;69240;43.530;-5.646;2023-07-29T11:50:44;7.57;;;2.30;;
73760;SDS011;69240;43.530;-5.646;2023-07-29T11:53:10;8.32;;;1.90;;
73760;SDS011;69240;43.530;-5.646;2023-07-29T11:55:36;6.80;;;1.75;;
73760;SDS011;69240;43.530;-5.646;2023-07-29T11:58:02;8.55;;;1.85;;
73760;SDS011;69240;43.530;-5.646;2023-07-29T12:03:55;7.13;;;1.85;;
73760;SDS011;69240;43.530;-5.646;2023-07-29T15:55:07;12.43;;;2.40;;
73760;SDS011;69240;43.530;-5.646;2023-07-29T16:03:41;10.88;;;2.00;;
73760;SDS011;69240;43.530;-5.646;2023-07-29T16:29:05;6.22;;;1.65;;
73760;SDS011;69240;43.530;-5.646;2023-07-29T16:31:32;7.63;;;1.60;;
73760;SDS011;69240;43.530;-5.646;2023-07-29T16:33:58;7.13;;;1.77;;
73760;SDS011;69240;43.530;-5.646;2023-07-29T16:36:24;13.85;;;1.90;;
73760;SDS011;69240;43.530;-5.646;2023-07-29T16:38:50;8.65;;;1.50;;
73760;SDS011;69240;43.530;-5.646;2023-07-29T17:07:54;17.10;;;2.10;;
73760;SDS011;69240;43.530;-5.646;2023-07-29T17:16:03;11.05;;;2.13;;
73760;SDS011;69240;43.530;-5.646;2023-07-29T17:22:07;12.48;;;2.28;;
73760;SDS011;69240;43.530;-5.646;2023-07-29T17:34:23;9.73;;;2.00;;
73760;SDS011;69240;43.530;-5.646;2023-07-29T17:36:48;12.15;;;2.03;;
73760;SDS011;69240;43.530;-5.646;2023-07-29T17:39:14;9.48;;;1.77;;
73760;SDS011;69240;43.530;-5.646;2023-07-29T17:41:39;7.47;;;1.58;;
73760;SDS011;69240;43.530;-5.646;2023-07-29T17:44:05;12.30;;;2.03;;
73760;SDS011;69240;43.530;-5.646;2023-07-29T17:46:30;16.02;;;2.38;;
73760;SDS011;69240;43.530;-5.646;2023-07-29T17:48:56;11.10;;;1.77;;
73760;SDS011;69240;43.530;-5.646;2023-07-29T18:01:26;8.75;;;2.03;;
73760;SDS011;69240;43.530;-5.646;2023-07-29T18:03:52;10.68;;;2.00;;
73760;SDS011;69240;43.530;-5.646;2023-07-29T19:22:28;9.75;;;2.35;;
73760;SDS011;69240;43.530;-5.646;2023-07-29T20:09:35;8.98;;;3.00;;
73760;SDS011;69240;43.530;-5.646;2023-07-29T20:36:44;9.20;;;3.13;;
73760;SDS011;69240;43.530;-5.646;2023-07-29T20:49:15;10.10;;;2.72;;
73760;SDS011;69240;43.530;-5.646;2023-07-29T21:01:52;11.85;;;2.75;;
73760;SDS011;69240;43.530;-5.646;2023-07-29T21:11:06;6.90;;;2.35;;
73760;SDS011;69240;43.530;-5.646;2023-07-29T21:17:03;5.05;;;2.03;;
73760;SDS011;69240;43.530;-5.646;2023-07-29T21:22:50;14.63;;;2.95;;
73760;SDS011;69240;43.530;-5.646;2023-07-29T21:25:16;14.57;;;3.30;;
73760;SDS011;69240;43.530;-5.646;2023-07-29T21:41:14;9.27;;;2.58;;
73760;SDS011;69240;43.530;-5.646;2023-07-29T22:00:51;9.90;;;2.97;;
73760;SDS011;69240;43.530;-5.646;2023-07-29T22:06:40;10.52;;;2.92;;
73760;SDS011;69240;43.530;-5.646;2023-07-29T22:19:29;10.77;;;2.83;;
73760;SDS011;69240;43.530;-5.646;2023-07-29T22:29:27;9.98;;;3.03;;
73760;SDS011;69240;43.530;-5.646;2023-07-29T22:35:27;13.80;;;3.40;;
73760;SDS011;69240;43.530;-5.646;2023-07-29T22:37:54;11.50;;;2.90;;
73760;SDS011;69240;43.530;-5.646;2023-07-29T22:43:43;11.07;;;3.05;;
73760;SDS011;69240;43.530;-5.646;2023-07-29T22:52:59;10.30;;;3.67;;
73760;SDS011;69240;43.530;-5.646;2023-07-29T22:58:52;8.13;;;3.00;;
73760;SDS011;69240;43.530;-5.646;2023-07-29T23:14:21;9.02;;;3.72;;
73760;SDS011;69240;43.530;-5.646;2023-07-29T23:20:09;9.07;;;3.97;;
73760;SDS011;69240;43.530;-5.646;2023-07-29T23:39:03;11.02;;;3.33;;
73760;SDS011;69240;43.530;-5.646;2023-07-29T23:44:54;11.40;;;3.58;;
73760;SDS011;69240;43.530;-5.646;2023-07-29T23:47:28;16.08;;;3.78;;
